sensor_id;sensor_type;location;lat;lon;timestamp;P1;durP1;ratioP1;P2;durP2;ratioP2
11000;SDS011;5553;48.506;8.870;2022-11-18T00:01:16;0.67;;;0.67;;
11000;SDS011;5553;48.506;8.870;2022-11-18T00:03:46;1.57;;;0.70;;
11000;SDS011;5553;48.506;8.870;2022-11-18T00:06:15;1.23;;;1.13;;
11000;SDS011;5553;48.506;8.870;2022-11-18T00:08:45;2.40;;;1.30;;
11000;SDS011;5553;48.506;8.870;2022-11-18T00:11:16;2.20;;;0.90;;
11000;SDS011;5553;48.506;8.870;2022-11-18T00:13:58;0.97;;;0.70;;
11000;SDS011;5553;48.506;8.870;2022-11-18T00:16:39;1.20;;;0.97;;
11000;SDS011;5553;48.506;8.870;2022-11-18T00:19:07;0.70;;;0.50;;
11000;SDS011;5553;48.506;8.870;2022-11-18T00:21:36;7.13;;;0.80;;
11000;SDS011;5553;48.506;8.870;2022-11-18T00:24:05;0.70;;;0.40;;
11000;SDS011;5553;48.506;8.870;2022-11-18T00:26:36;1.13;;;0.60;;
11000;SDS011;5553;48.506;8.870;2022-11-18T00:29:04;1.90;;;0.50;;
11000;SDS011;5553;48.506;8.870;2022-11-18T00:31:33;0.40;;;0.40;;
11000;SDS011;5553;48.506;8.870;2022-11-18T00:34:02;1.43;;;0.43;;
11000;SDS011;5553;48.506;8.870;2022-11-18T00:36:30;1.60;;;0.50;;
11000;SDS011;5553;48.506;8.870;2022-11-18T00:38:59;0.50;;;0.47;;
11000;SDS011;5553;48.506;8.870;2022-11-18T00:41:27;0.77;;;0.60;;
11000;SDS011;5553;48.506;8.870;2022-11-18T00:44:19;0.70;;;0.50;;
11000;SDS011;5553;48.506;8.870;2022-11-18T00:46:45;0.93;;;0.80;;
11000;SDS011;5553;48.506;8.870;2022-11-18T00:49:13;0.90;;;0.73;;
11000;SDS011;5553;48.506;8.870;2022-11-18T00:51:41;0.80;;;0.80;;
11000;SDS011;5553;48.506;8.870;2022-11-18T00:54:10;1.50;;;1.00;;
11000;SDS011;5553;48.506;8.870;2022-11-18T00:56:38;0.70;;;0.70;;
11000;SDS011;5553;48.506;8.870;2022-11-18T00:59:06;0.93;;;0.83;;
11000;SDS011;5553;48.506;8.870;2022-11-18T01:01:38;0.90;;;0.60;;
11000;SDS011;5553;48.506;8.870;2022-11-18T01:04:06;1.00;;;0.43;;
11000;SDS011;5553;48.506;8.870;2022-11-18T01:06:34;0.63;;;0.50;;
11000;SDS011;5553;48.506;8.870;2022-11-18T01:09:03;0.70;;;0.50;;
11000;SDS011;5553;48.506;8.870;2022-11-18T01:11:31;1.03;;;0.43;;
11000;SDS011;5553;48.506;8.870;2022-11-18T01:14:12;1.93;;;1.40;;
11000;SDS011;5553;48.506;8.870;2022-11-18T01:16:43;0.63;;;0.63;;
11000;SDS011;5553;48.506;8.870;2022-11-18T01:19:15;0.90;;;0.83;;
11000;SDS011;5553;48.506;8.870;2022-11-18T01:21:43;1.20;;;0.63;;
11000;SDS011;5553;48.506;8.870;2022-11-18T01:24:12;1.80;;;0.80;;
11000;SDS011;5553;48.506;8.870;2022-11-18T01:26:40;0.87;;;0.67;;
11000;SDS011;5553;48.506;8.870;2022-11-18T01:29:09;2.07;;;0.83;;
11000;SDS011;5553;48.506;8.870;2022-11-18T01:31:37;1.33;;;0.97;;
11000;SDS011;5553;48.506;8.870;2022-11-18T01:34:08;3.17;;;0.90;;
11000;SDS011;5553;48.506;8.870;2022-11-18T01:36:36;2.20;;;0.80;;
11000;SDS011;5553;48.506;8.870;2022-11-18T01:39:05;1.47;;;1.03;;
11000;SDS011;5553;48.506;8.870;2022-11-18T01:41:33;1.60;;;0.93;;
11000;SDS011;5553;48.506;8.870;2022-11-18T01:44:03;2.50;;;0.90;;
11000;SDS011;5553;48.506;8.870;2022-11-18T01:46:33;1.47;;;0.80;;
11000;SDS011;5553;48.506;8.870;2022-11-18T01:49:02;1.73;;;0.63;;
11000;SDS011;5553;48.506;8.870;2022-11-18T01:51:40;1.13;;;0.70;;
11000;SDS011;5553;48.506;8.870;2022-11-18T01:54:17;0.60;;;0.60;;
11000;SDS011;5553;48.506;8.870;2022-11-18T01:56:51;0.73;;;0.73;;
11000;SDS011;5553;48.506;8.870;2022-11-18T01:59:25;1.17;;;0.80;;
11000;SDS011;5553;48.506;8.870;2022-11-18T02:01:57;0.83;;;0.83;;
11000;SDS011;5553;48.506;8.870;2022-11-18T02:04:32;1.10;;;0.80;;
11000;SDS011;5553;48.506;8.870;2022-11-18T02:07:01;0.87;;;0.87;;
11000;SDS011;5553;48.506;8.870;2022-11-18T02:09:30;0.83;;;0.83;;
11000;SDS011;5553;48.506;8.870;2022-11-18T02:11:59;1.77;;;0.70;;
11000;SDS011;5553;48.506;8.870;2022-11-18T02:14:28;0.97;;;0.83;;
11000;SDS011;5553;48.506;8.870;2022-11-18T02:17:02;3.13;;;0.80;;
11000;SDS011;5553;48.506;8.870;2022-11-18T02:19:44;2.20;;;0.83;;
11000;SDS011;5553;48.506;8.870;2022-11-18T02:22:34;0.93;;;0.60;;
11000;SDS011;5553;48.506;8.870;2022-11-18T02:25:20;2.23;;;1.10;;
11000;SDS011;5553;48.506;8.870;2022-11-18T02:28:12;1.83;;;1.10;;
11000;SDS011;5553;48.506;8.870;2022-11-18T02:30:59;1.40;;;0.90;;
11000;SDS011;5553;48.506;8.870;2022-11-18T02:33:35;0.93;;;0.90;;
11000;SDS011;5553;48.506;8.870;2022-11-18T02:36:11;1.50;;;0.77;;
11000;SDS011;5553;48.506;8.870;2022-11-18T02:38:47;2.73;;;1.30;;
11000;SDS011;5553;48.506;8.870;2022-11-18T02:41:20;0.90;;;0.90;;
11000;SDS011;5553;48.506;8.870;2022-11-18T02:43:55;2.17;;;1.20;;
11000;SDS011;5553;48.506;8.870;2022-11-18T02:46:30;4.70;;;1.20;;
11000;SDS011;5553;48.506;8.870;2022-11-18T02:49:01;1.67;;;1.57;;
11000;SDS011;5553;48.506;8.870;2022-11-18T02:51:34;2.80;;;2.10;;
11000;SDS011;5553;48.506;8.870;2022-11-18T02:54:05;2.33;;;1.63;;
11000;SDS011;5553;48.506;8.870;2022-11-18T02:56:36;1.93;;;1.00;;
11000;SDS011;5553;48.506;8.870;2022-11-18T02:59:04;1.40;;;1.30;;
11000;SDS011;5553;48.506;8.870;2022-11-18T03:01:36;1.70;;;1.60;;
11000;SDS011;5553;48.506;8.870;2022-11-18T03:04:05;1.50;;;1.40;;
11000;SDS011;5553;48.506;8.870;2022-11-18T03:06:34;1.60;;;1.50;;
11000;SDS011;5553;48.506;8.870;2022-11-18T03:09:07;1.20;;;1.10;;
11000;SDS011;5553;48.506;8.870;2022-11-18T03:11:42;2.13;;;1.70;;
11000;SDS011;5553;48.506;8.870;2022-11-18T03:14:19;2.00;;;1.20;;
11000;SDS011;5553;48.506;8.870;2022-11-18T03:16:57;2.23;;;1.43;;
11000;SDS011;5553;48.506;8.870;2022-11-18T03:19:40;1.23;;;1.10;;
11000;SDS011;5553;48.506;8.870;2022-11-18T03:22:24;1.20;;;1.10;;
11000;SDS011;5553;48.506;8.870;2022-11-18T03:24:58;1.60;;;1.50;;
11000;SDS011;5553;48.506;8.870;2022-11-18T03:27:32;1.00;;;1.00;;
11000;SDS011;5553;48.506;8.870;2022-11-18T03:30:05;1.97;;;1.20;;
11000;SDS011;5553;48.506;8.870;2022-11-18T03:32:40;0.97;;;0.97;;
11000;SDS011;5553;48.506;8.870;2022-11-18T03:35:13;1.00;;;1.00;;
11000;SDS011;5553;48.506;8.870;2022-11-18T03:37:45;0.80;;;0.60;;
11000;SDS011;5553;48.506;8.870;2022-11-18T03:40:17;0.90;;;0.80;;
11000;SDS011;5553;48.506;8.870;2022-11-18T03:42:49;1.50;;;1.00;;
11000;SDS011;5553;48.506;8.870;2022-11-18T03:45:24;1.27;;;1.00;;
11000;SDS011;5553;48.506;8.870;2022-11-18T03:47:59;0.97;;;0.67;;
11000;SDS011;5553;48.506;8.870;2022-11-18T03:50:33;0.93;;;0.63;;
11000;SDS011;5553;48.506;8.870;2022-11-18T03:53:06;4.80;;;0.80;;
11000;SDS011;5553;48.506;8.870;2022-11-18T03:55:36;1.30;;;0.70;;
11000;SDS011;5553;48.506;8.870;2022-11-18T03:58:09;0.90;;;0.73;;
11000;SDS011;5553;48.506;8.870;2022-11-18T04:00:44;1.10;;;0.90;;
11000;SDS011;5553;48.506;8.870;2022-11-18T04:03:19;1.23;;;1.13;;
11000;SDS011;5553;48.506;8.870;2022-11-18T04:05:50;1.10;;;0.90;;
11000;SDS011;5553;48.506;8.870;2022-11-18T04:08:25;1.17;;;0.50;;
11000;SDS011;5553;48.506;8.870;2022-11-18T04:10:58;3.77;;;0.60;;
11000;SDS011;5553;48.506;8.870;2022-11-18T04:13:33;0.40;;;0.30;;
11000;SDS011;5553;48.506;8.870;2022-11-18T04:16:05;1.80;;;0.30;;
11000;SDS011;5553;48.506;8.870;2022-11-18T04:18:38;0.57;;;0.30;;
11000;SDS011;5553;48.506;8.870;2022-11-18T04:21:06;0.57;;;0.30;;
11000;SDS011;5553;48.506;8.870;2022-11-18T04:23:34;0.40;;;0.20;;
11000;SDS011;5553;48.506;8.870;2022-11-18T04:26:03;0.40;;;0.20;;
11000;SDS011;5553;48.506;8.870;2022-11-18T04:28:31;0.60;;;0.60;;
11000;SDS011;5553;48.506;8.870;2022-11-18T04:30:59;0.90;;;0.30;;
11000;SDS011;5553;48.506;8.870;2022-11-18T04:33:28;1.13;;;0.20;;
11000;SDS011;5553;48.506;8.870;2022-11-18T04:35:58;1.00;;;0.23;;
11000;SDS011;5553;48.506;8.870;2022-11-18T04:38:27;0.40;;;0.20;;
11000;SDS011;5553;48.506;8.870;2022-11-18T04:40:55;0.30;;;0.20;;
11000;SDS011;5553;48.506;8.870;2022-11-18T04:43:23;1.13;;;0.20;;
11000;SDS011;5553;48.506;8.870;2022-11-18T04:45:52;0.53;;;0.20;;
11000;SDS011;5553;48.506;8.870;2022-11-18T04:48:20;0.30;;;0.20;;
11000;SDS011;5553;48.506;8.870;2022-11-18T04:50:49;0.37;;;0.20;;
11000;SDS011;5553;48.506;8.870;2022-11-18T04:53:19;1.63;;;0.23;;
11000;SDS011;5553;48.506;8.870;2022-11-18T04:55:48;0.30;;;0.20;;
11000;SDS011;5553;48.506;8.870;2022-11-18T04:58:16;0.40;;;0.30;;
11000;SDS011;5553;48.506;8.870;2022-11-18T05:00:44;0.30;;;0.20;;
11000;SDS011;5553;48.506;8.870;2022-11-18T05:03:13;0.40;;;0.23;;
11000;SDS011;5553;48.506;8.870;2022-11-18T05:05:42;0.40;;;0.20;;
11000;SDS011;5553;48.506;8.870;2022-11-18T05:08:10;0.30;;;0.20;;
11000;SDS011;5553;48.506;8.870;2022-11-18T05:10:41;1.60;;;0.20;;
11000;SDS011;5553;48.506;8.870;2022-11-18T05:13:11;0.53;;;0.20;;
11000;SDS011;5553;48.506;8.870;2022-11-18T05:15:37;0.57;;;0.30;;
11000;SDS011;5553;48.506;8.870;2022-11-18T05:18:05;0.60;;;0.30;;
11000;SDS011;5553;48.506;8.870;2022-11-18T05:20:36;1.17;;;0.30;;
11000;SDS011;5553;48.506;8.870;2022-11-18T05:23:05;0.67;;;0.40;;
11000;SDS011;5553;48.506;8.870;2022-11-18T05:25:34;2.13;;;0.30;;
11000;SDS011;5553;48.506;8.870;2022-11-18T05:28:05;0.60;;;0.30;;
11000;SDS011;5553;48.506;8.870;2022-11-18T05:30:33;1.03;;;0.30;;
11000;SDS011;5553;48.506;8.870;2022-11-18T05:33:01;0.30;;;0.20;;
11000;SDS011;5553;48.506;8.870;2022-11-18T05:35:30;0.40;;;0.30;;
11000;SDS011;5553;48.506;8.870;2022-11-18T05:38:00;0.40;;;0.20;;
11000;SDS011;5553;48.506;8.870;2022-11-18T05:40:28;1.40;;;0.37;;
11000;SDS011;5553;48.506;8.870;2022-11-18T05:42:56;1.00;;;0.33;;
11000;SDS011;5553;48.506;8.870;2022-11-18T05:45:40;1.60;;;0.30;;
11000;SDS011;5553;48.506;8.870;2022-11-18T05:48:10;0.30;;;0.20;;
11000;SDS011;5553;48.506;8.870;2022-11-18T05:50:39;0.30;;;0.20;;
11000;SDS011;5553;48.506;8.870;2022-11-18T05:53:07;0.40;;;0.20;;
11000;SDS011;5553;48.506;8.870;2022-11-18T05:55:37;0.43;;;0.27;;
11000;SDS011;5553;48.506;8.870;2022-11-18T05:58:09;1.57;;;0.50;;
11000;SDS011;5553;48.506;8.870;2022-11-18T06:00:40;0.30;;;0.20;;
11000;SDS011;5553;48.506;8.870;2022-11-18T06:03:11;0.83;;;0.30;;
11000;SDS011;5553;48.506;8.870;2022-11-18T06:05:44;0.87;;;0.30;;
11000;SDS011;5553;48.506;8.870;2022-11-18T06:08:13;0.40;;;0.30;;
11000;SDS011;5553;48.506;8.870;2022-11-18T06:10:45;1.03;;;0.43;;
11000;SDS011;5553;48.506;8.870;2022-11-18T06:13:16;0.60;;;0.40;;
11000;SDS011;5553;48.506;8.870;2022-11-18T06:15:53;0.50;;;0.20;;
11000;SDS011;5553;48.506;8.870;2022-11-18T06:18:22;0.60;;;0.40;;
11000;SDS011;5553;48.506;8.870;2022-11-18T06:20:54;0.77;;;0.30;;
11000;SDS011;5553;48.506;8.870;2022-11-18T06:23:26;0.80;;;0.30;;
11000;SDS011;5553;48.506;8.870;2022-11-18T06:25:56;3.73;;;0.30;;
11000;SDS011;5553;48.506;8.870;2022-11-18T06:28:24;0.70;;;0.63;;
11000;SDS011;5553;48.506;8.870;2022-11-18T06:30:57;0.50;;;0.50;;
11000;SDS011;5553;48.506;8.870;2022-11-18T06:33:25;0.50;;;0.30;;
11000;SDS011;5553;48.506;8.870;2022-11-18T06:35:54;0.50;;;0.30;;
11000;SDS011;5553;48.506;8.870;2022-11-18T06:38:22;1.00;;;0.90;;
11000;SDS011;5553;48.506;8.870;2022-11-18T06:40:51;0.90;;;0.70;;
11000;SDS011;5553;48.506;8.870;2022-11-18T06:43:20;1.07;;;0.80;;
11000;SDS011;5553;48.506;8.870;2022-11-18T06:46:04;0.47;;;0.40;;
11000;SDS011;5553;48.506;8.870;2022-11-18T06:48:46;0.80;;;0.30;;
11000;SDS011;5553;48.506;8.870;2022-11-18T06:51:15;1.00;;;0.50;;
11000;SDS011;5553;48.506;8.870;2022-11-18T06:53:44;0.40;;;0.30;;
11000;SDS011;5553;48.506;8.870;2022-11-18T06:56:13;0.60;;;0.30;;
11000;SDS011;5553;48.506;8.870;2022-11-18T06:58:43;1.00;;;0.40;;
11000;SDS011;5553;48.506;8.870;2022-11-18T07:01:15;1.87;;;0.50;;
11000;SDS011;5553;48.506;8.870;2022-11-18T07:03:45;0.57;;;0.50;;
11000;SDS011;5553;48.506;8.870;2022-11-18T07:06:16;1.07;;;0.30;;
11000;SDS011;5553;48.506;8.870;2022-11-18T07:08:46;0.50;;;0.50;;
11000;SDS011;5553;48.506;8.870;2022-11-18T07:11:16;1.33;;;0.73;;
11000;SDS011;5553;48.506;8.870;2022-11-18T07:13:46;0.70;;;0.30;;
11000;SDS011;5553;48.506;8.870;2022-11-18T07:16:18;1.17;;;0.43;;
11000;SDS011;5553;48.506;8.870;2022-11-18T07:18:47;0.50;;;0.40;;
11000;SDS011;5553;48.506;8.870;2022-11-18T07:21:17;0.40;;;0.40;;
11000;SDS011;5553;48.506;8.870;2022-11-18T07:23:46;1.73;;;0.50;;
11000;SDS011;5553;48.506;8.870;2022-11-18T07:26:15;0.87;;;0.40;;
11000;SDS011;5553;48.506;8.870;2022-11-18T07:28:44;1.87;;;0.57;;
11000;SDS011;5553;48.506;8.870;2022-11-18T07:31:13;0.70;;;0.40;;
11000;SDS011;5553;48.506;8.870;2022-11-18T07:33:46;0.60;;;0.40;;
11000;SDS011;5553;48.506;8.870;2022-11-18T07:36:18;0.63;;;0.40;;
11000;SDS011;5553;48.506;8.870;2022-11-18T07:38:48;0.70;;;0.43;;
11000;SDS011;5553;48.506;8.870;2022-11-18T07:41:17;0.63;;;0.30;;
11000;SDS011;5553;48.506;8.870;2022-11-18T07:43:47;0.50;;;0.30;;
11000;SDS011;5553;48.506;8.870;2022-11-18T07:46:20;0.40;;;0.30;;
11000;SDS011;5553;48.506;8.870;2022-11-18T07:48:50;0.50;;;0.30;;
11000;SDS011;5553;48.506;8.870;2022-11-18T07:51:20;0.93;;;0.40;;
11000;SDS011;5553;48.506;8.870;2022-11-18T07:53:50;1.07;;;0.67;;
11000;SDS011;5553;48.506;8.870;2022-11-18T07:56:19;1.10;;;0.63;;
11000;SDS011;5553;48.506;8.870;2022-11-18T07:58:51;0.70;;;0.47;;
11000;SDS011;5553;48.506;8.870;2022-11-18T08:01:23;1.00;;;0.40;;
11000;SDS011;5553;48.506;8.870;2022-11-18T08:03:55;0.87;;;0.40;;
11000;SDS011;5553;48.506;8.870;2022-11-18T08:06:23;0.70;;;0.40;;
11000;SDS011;5553;48.506;8.870;2022-11-18T08:08:52;3.57;;;0.50;;
11000;SDS011;5553;48.506;8.870;2022-11-18T08:11:20;0.70;;;0.40;;
11000;SDS011;5553;48.506;8.870;2022-11-18T08:13:48;0.30;;;0.20;;
11000;SDS011;5553;48.506;8.870;2022-11-18T08:16:18;0.40;;;0.20;;
11000;SDS011;5553;48.506;8.870;2022-11-18T08:18:51;0.60;;;0.30;;
11000;SDS011;5553;48.506;8.870;2022-11-18T08:21:20;0.53;;;0.40;;
11000;SDS011;5553;48.506;8.870;2022-11-18T08:23:49;0.57;;;0.40;;
11000;SDS011;5553;48.506;8.870;2022-11-18T08:26:18;0.40;;;0.30;;
11000;SDS011;5553;48.506;8.870;2022-11-18T08:28:47;0.73;;;0.47;;
11000;SDS011;5553;48.506;8.870;2022-11-18T08:31:16;1.90;;;0.50;;
11000;SDS011;5553;48.506;8.870;2022-11-18T08:33:46;0.40;;;0.30;;
11000;SDS011;5553;48.506;8.870;2022-11-18T08:36:19;0.40;;;0.30;;
11000;SDS011;5553;48.506;8.870;2022-11-18T08:38:49;0.60;;;0.40;;
11000;SDS011;5553;48.506;8.870;2022-11-18T08:41:18;4.10;;;0.50;;
11000;SDS011;5553;48.506;8.870;2022-11-18T08:43:52;0.97;;;0.43;;
11000;SDS011;5553;48.506;8.870;2022-11-18T08:46:20;0.60;;;0.50;;
11000;SDS011;5553;48.506;8.870;2022-11-18T08:48:49;0.50;;;0.40;;
11000;SDS011;5553;48.506;8.870;2022-11-18T08:51:20;0.60;;;0.60;;
11000;SDS011;5553;48.506;8.870;2022-11-18T08:53:48;0.73;;;0.40;;
11000;SDS011;5553;48.506;8.870;2022-11-18T08:56:17;0.40;;;0.40;;
11000;SDS011;5553;48.506;8.870;2022-11-18T08:58:47;1.13;;;0.80;;
11000;SDS011;5553;48.506;8.870;2022-11-18T09:01:15;1.17;;;0.43;;
11000;SDS011;5553;48.506;8.870;2022-11-18T09:03:44;1.83;;;1.13;;
11000;SDS011;5553;48.506;8.870;2022-11-18T09:06:14;1.30;;;0.77;;
11000;SDS011;5553;48.506;8.870;2022-11-18T09:08:46;0.70;;;0.60;;
11000;SDS011;5553;48.506;8.870;2022-11-18T09:11:15;2.70;;;1.07;;
11000;SDS011;5553;48.506;8.870;2022-11-18T09:13:44;0.73;;;0.60;;
11000;SDS011;5553;48.506;8.870;2022-11-18T09:16:13;0.70;;;0.70;;
11000;SDS011;5553;48.506;8.870;2022-11-18T09:18:41;0.97;;;0.70;;
11000;SDS011;5553;48.506;8.870;2022-11-18T09:21:09;0.43;;;0.37;;
11000;SDS011;5553;48.506;8.870;2022-11-18T09:23:38;1.80;;;0.83;;
11000;SDS011;5553;48.506;8.870;2022-11-18T09:26:09;0.40;;;0.30;;
11000;SDS011;5553;48.506;8.870;2022-11-18T09:28:39;1.50;;;0.60;;
11000;SDS011;5553;48.506;8.870;2022-11-18T09:31:09;1.00;;;0.60;;
11000;SDS011;5553;48.506;8.870;2022-11-18T09:33:39;2.63;;;1.00;;
11000;SDS011;5553;48.506;8.870;2022-11-18T09:36:10;2.60;;;0.57;;
11000;SDS011;5553;48.506;8.870;2022-11-18T09:38:40;0.47;;;0.30;;
11000;SDS011;5553;48.506;8.870;2022-11-18T09:41:15;2.30;;;0.40;;
11000;SDS011;5553;48.506;8.870;2022-11-18T09:43:54;0.30;;;0.30;;
11000;SDS011;5553;48.506;8.870;2022-11-18T09:46:34;2.53;;;0.30;;
11000;SDS011;5553;48.506;8.870;2022-11-18T09:49:13;0.40;;;0.20;;
11000;SDS011;5553;48.506;8.870;2022-11-18T09:51:47;0.60;;;0.37;;
11000;SDS011;5553;48.506;8.870;2022-11-18T09:54:18;0.30;;;0.20;;
11000;SDS011;5553;48.506;8.870;2022-11-18T09:56:52;0.30;;;0.30;;
11000;SDS011;5553;48.506;8.870;2022-11-18T09:59:23;0.43;;;0.40;;
11000;SDS011;5553;48.506;8.870;2022-11-18T10:01:53;0.80;;;0.53;;
11000;SDS011;5553;48.506;8.870;2022-11-18T10:04:26;0.50;;;0.30;;
11000;SDS011;5553;48.506;8.870;2022-11-18T10:06:55;0.40;;;0.30;;
11000;SDS011;5553;48.506;8.870;2022-11-18T10:09:25;0.47;;;0.30;;
11000;SDS011;5553;48.506;8.870;2022-11-18T10:12:07;0.90;;;0.43;;
11000;SDS011;5553;48.506;8.870;2022-11-18T10:15:01;0.40;;;0.30;;
11000;SDS011;5553;48.506;8.870;2022-11-18T10:17:42;1.07;;;0.40;;
11000;SDS011;5553;48.506;8.870;2022-11-18T10:20:21;2.47;;;0.40;;
11000;SDS011;5553;48.506;8.870;2022-11-18T10:23:01;0.40;;;0.20;;
11000;SDS011;5553;48.506;8.870;2022-11-18T10:25:33;0.40;;;0.30;;
11000;SDS011;5553;48.506;8.870;2022-11-18T10:28:12;0.50;;;0.20;;
11000;SDS011;5553;48.506;8.870;2022-11-18T10:30:42;0.93;;;0.30;;
11000;SDS011;5553;48.506;8.870;2022-11-18T10:33:22;0.40;;;0.30;;
11000;SDS011;5553;48.506;8.870;2022-11-18T10:36:07;0.50;;;0.30;;
11000;SDS011;5553;48.506;8.870;2022-11-18T10:38:37;0.60;;;0.30;;
11000;SDS011;5553;48.506;8.870;2022-11-18T10:41:08;0.50;;;0.30;;
11000;SDS011;5553;48.506;8.870;2022-11-18T10:43:46;0.47;;;0.30;;
11000;SDS011;5553;48.506;8.870;2022-11-18T10:46:17;0.70;;;0.40;;
11000;SDS011;5553;48.506;8.870;2022-11-18T10:51:42;0.40;;;0.30;;
11000;SDS011;5553;48.506;8.870;2022-11-18T10:54:15;0.80;;;0.37;;
11000;SDS011;5553;48.506;8.870;2022-11-18T10:56:46;1.20;;;0.30;;
11000;SDS011;5553;48.506;8.870;2022-11-18T10:59:23;0.50;;;0.30;;
11000;SDS011;5553;48.506;8.870;2022-11-18T11:02:00;1.97;;;0.20;;
11000;SDS011;5553;48.506;8.870;2022-11-18T11:04:39;0.50;;;0.33;;
11000;SDS011;5553;48.506;8.870;2022-11-18T11:07:13;0.70;;;0.40;;
11000;SDS011;5553;48.506;8.870;2022-11-18T11:09:43;0.40;;;0.37;;
11000;SDS011;5553;48.506;8.870;2022-11-18T11:12:26;0.50;;;0.27;;
11000;SDS011;5553;48.506;8.870;2022-11-18T11:14:59;0.40;;;0.40;;
11000;SDS011;5553;48.506;8.870;2022-11-18T11:17:32;0.70;;;0.40;;
11000;SDS011;5553;48.506;8.870;2022-11-18T11:20:04;1.87;;;0.30;;
11000;SDS011;5553;48.506;8.870;2022-11-18T11:22:39;1.00;;;0.30;;
11000;SDS011;5553;48.506;8.870;2022-11-18T11:25:10;0.40;;;0.30;;
11000;SDS011;5553;48.506;8.870;2022-11-18T11:27:51;2.77;;;0.40;;
11000;SDS011;5553;48.506;8.870;2022-11-18T11:30:27;1.03;;;0.37;;
11000;SDS011;5553;48.506;8.870;2022-11-18T11:33:06;0.50;;;0.20;;
11000;SDS011;5553;48.506;8.870;2022-11-18T11:35:46;0.93;;;0.40;;
11000;SDS011;5553;48.506;8.870;2022-11-18T11:38:24;0.63;;;0.40;;
11000;SDS011;5553;48.506;8.870;2022-11-18T11:41:03;0.43;;;0.30;;
11000;SDS011;5553;48.506;8.870;2022-11-18T11:43:40;0.40;;;0.30;;
11000;SDS011;5553;48.506;8.870;2022-11-18T11:46:25;0.83;;;0.30;;
11000;SDS011;5553;48.506;8.870;2022-11-18T11:49:03;0.40;;;0.37;;
11000;SDS011;5553;48.506;8.870;2022-11-18T11:51:44;1.00;;;0.40;;
11000;SDS011;5553;48.506;8.870;2022-11-18T11:54:21;0.30;;;0.20;;
11000;SDS011;5553;48.506;8.870;2022-11-18T11:56:58;1.10;;;0.57;;
11000;SDS011;5553;48.506;8.870;2022-11-18T11:59:34;0.40;;;0.27;;
11000;SDS011;5553;48.506;8.870;2022-11-18T12:02:17;0.70;;;0.37;;
11000;SDS011;5553;48.506;8.870;2022-11-18T12:04:58;0.40;;;0.30;;
11000;SDS011;5553;48.506;8.870;2022-11-18T12:07:41;0.30;;;0.20;;
11000;SDS011;5553;48.506;8.870;2022-11-18T12:10:18;0.50;;;0.30;;
11000;SDS011;5553;48.506;8.870;2022-11-18T12:12:57;0.40;;;0.20;;
11000;SDS011;5553;48.506;8.870;2022-11-18T12:15:41;0.60;;;0.30;;
11000;SDS011;5553;48.506;8.870;2022-11-18T12:18:19;0.40;;;0.30;;
11000;SDS011;5553;48.506;8.870;2022-11-18T12:20:53;0.40;;;0.20;;
11000;SDS011;5553;48.506;8.870;2022-11-18T12:23:22;0.60;;;0.40;;
11000;SDS011;5553;48.506;8.870;2022-11-18T12:25:53;1.40;;;0.67;;
11000;SDS011;5553;48.506;8.870;2022-11-18T12:28:24;0.60;;;0.30;;
11000;SDS011;5553;48.506;8.870;2022-11-18T12:34:25;0.50;;;0.50;;
11000;SDS011;5553;48.506;8.870;2022-11-18T12:37:36;4.10;;;0.53;;
11000;SDS011;5553;48.506;8.870;2022-11-18T12:40:37;1.27;;;0.30;;
11000;SDS011;5553;48.506;8.870;2022-11-18T12:55:10;3.30;;;1.27;;
11000;SDS011;5553;48.506;8.870;2022-11-18T12:57:44;0.90;;;0.40;;
11000;SDS011;5553;48.506;8.870;2022-11-18T13:03:25;1.43;;;0.40;;
11000;SDS011;5553;48.506;8.870;2022-11-18T13:06:05;0.50;;;0.40;;
11000;SDS011;5553;48.506;8.870;2022-11-18T13:08:39;1.83;;;0.40;;
11000;SDS011;5553;48.506;8.870;2022-11-18T13:11:09;0.50;;;0.30;;
11000;SDS011;5553;48.506;8.870;2022-11-18T13:13:57;1.57;;;0.40;;
11000;SDS011;5553;48.506;8.870;2022-11-18T13:16:40;0.40;;;0.30;;
11000;SDS011;5553;48.506;8.870;2022-11-18T13:19:23;0.40;;;0.30;;
11000;SDS011;5553;48.506;8.870;2022-11-18T13:21:52;0.77;;;0.37;;
11000;SDS011;5553;48.506;8.870;2022-11-18T13:24:41;0.83;;;0.33;;
11000;SDS011;5553;48.506;8.870;2022-11-18T13:27:16;0.87;;;0.60;;
11000;SDS011;5553;48.506;8.870;2022-11-18T13:29:56;0.40;;;0.30;;
11000;SDS011;5553;48.506;8.870;2022-11-18T13:32:29;0.70;;;0.40;;
11000;SDS011;5553;48.506;8.870;2022-11-18T13:35:03;1.00;;;0.50;;
11000;SDS011;5553;48.506;8.870;2022-11-18T13:37:46;0.53;;;0.30;;
11000;SDS011;5553;48.506;8.870;2022-11-18T13:40:17;0.50;;;0.40;;
11000;SDS011;5553;48.506;8.870;2022-11-18T13:42:47;0.80;;;0.53;;
11000;SDS011;5553;48.506;8.870;2022-11-18T13:45:19;1.53;;;0.60;;
11000;SDS011;5553;48.506;8.870;2022-11-18T13:47:50;0.67;;;0.40;;
11000;SDS011;5553;48.506;8.870;2022-11-18T13:50:23;1.27;;;0.50;;
11000;SDS011;5553;48.506;8.870;2022-11-18T13:52:59;0.63;;;0.47;;
11000;SDS011;5553;48.506;8.870;2022-11-18T13:55:35;0.70;;;0.47;;
11000;SDS011;5553;48.506;8.870;2022-11-18T13:58:12;1.53;;;0.90;;
11000;SDS011;5553;48.506;8.870;2022-11-18T14:01:02;0.47;;;0.43;;
11000;SDS011;5553;48.506;8.870;2022-11-18T14:03:33;2.20;;;0.50;;
11000;SDS011;5553;48.506;8.870;2022-11-18T14:06:06;2.70;;;0.73;;
11000;SDS011;5553;48.506;8.870;2022-11-18T14:08:35;1.63;;;0.60;;
11000;SDS011;5553;48.506;8.870;2022-11-18T14:11:05;0.70;;;0.30;;
11000;SDS011;5553;48.506;8.870;2022-11-18T14:13:35;4.57;;;0.70;;
11000;SDS011;5553;48.506;8.870;2022-11-18T14:19:00;1.00;;;0.40;;
11000;SDS011;5553;48.506;8.870;2022-11-18T14:21:29;2.43;;;0.40;;
11000;SDS011;5553;48.506;8.870;2022-11-18T14:23:59;2.00;;;0.40;;
11000;SDS011;5553;48.506;8.870;2022-11-18T14:26:29;1.47;;;0.60;;
11000;SDS011;5553;48.506;8.870;2022-11-18T14:28:59;1.07;;;0.63;;
11000;SDS011;5553;48.506;8.870;2022-11-18T14:31:32;2.70;;;0.80;;
11000;SDS011;5553;48.506;8.870;2022-11-18T14:34:16;1.40;;;0.70;;
11000;SDS011;5553;48.506;8.870;2022-11-18T14:36:47;1.80;;;0.43;;
11000;SDS011;5553;48.506;8.870;2022-11-18T14:39:20;2.70;;;0.53;;
11000;SDS011;5553;48.506;8.870;2022-11-18T14:41:50;1.23;;;0.50;;
11000;SDS011;5553;48.506;8.870;2022-11-18T14:44:19;0.80;;;0.70;;
11000;SDS011;5553;48.506;8.870;2022-11-18T14:46:52;1.53;;;0.60;;
11000;SDS011;5553;48.506;8.870;2022-11-18T14:49:24;1.50;;;0.77;;
11000;SDS011;5553;48.506;8.870;2022-11-18T14:51:55;1.93;;;0.57;;
11000;SDS011;5553;48.506;8.870;2022-11-18T14:54:26;1.57;;;0.60;;
11000;SDS011;5553;48.506;8.870;2022-11-18T14:56:56;1.20;;;0.83;;
11000;SDS011;5553;48.506;8.870;2022-11-18T14:59:27;5.30;;;0.87;;
11000;SDS011;5553;48.506;8.870;2022-11-18T15:01:58;2.77;;;0.73;;
11000;SDS011;5553;48.506;8.870;2022-11-18T15:04:27;1.70;;;0.60;;
11000;SDS011;5553;48.506;8.870;2022-11-18T15:06:55;1.43;;;0.83;;
11000;SDS011;5553;48.506;8.870;2022-11-18T15:09:23;3.63;;;1.03;;
11000;SDS011;5553;48.506;8.870;2022-11-18T15:11:51;1.77;;;1.50;;
11000;SDS011;5553;48.506;8.870;2022-11-18T15:14:20;3.40;;;0.97;;
11000;SDS011;5553;48.506;8.870;2022-11-18T15:16:48;1.50;;;0.93;;
11000;SDS011;5553;48.506;8.870;2022-11-18T15:19:19;4.60;;;0.90;;
11000;SDS011;5553;48.506;8.870;2022-11-18T15:21:47;0.73;;;0.73;;
11000;SDS011;5553;48.506;8.870;2022-11-18T15:24:16;1.17;;;0.53;;
11000;SDS011;5553;48.506;8.870;2022-11-18T15:26:45;2.33;;;0.83;;
11000;SDS011;5553;48.506;8.870;2022-11-18T15:29:15;6.53;;;1.57;;
11000;SDS011;5553;48.506;8.870;2022-11-18T15:31:44;0.80;;;0.80;;
11000;SDS011;5553;48.506;8.870;2022-11-18T15:34:13;1.83;;;1.00;;
11000;SDS011;5553;48.506;8.870;2022-11-18T15:36:46;1.10;;;0.87;;
11000;SDS011;5553;48.506;8.870;2022-11-18T15:39:15;2.40;;;0.70;;
11000;SDS011;5553;48.506;8.870;2022-11-18T15:41:43;1.40;;;0.70;;
11000;SDS011;5553;48.506;8.870;2022-11-18T15:44:11;3.40;;;1.10;;
11000;SDS011;5553;48.506;8.870;2022-11-18T15:46:40;2.50;;;1.00;;
11000;SDS011;5553;48.506;8.870;2022-11-18T15:49:09;2.90;;;1.27;;
11000;SDS011;5553;48.506;8.870;2022-11-18T15:51:41;1.90;;;1.10;;
11000;SDS011;5553;48.506;8.870;2022-11-18T15:54:12;8.37;;;1.80;;
11000;SDS011;5553;48.506;8.870;2022-11-18T15:56:40;4.53;;;1.50;;